createdAt,value
2023-03-12T00:00:11.832Z,9.17
2023-03-12T00:02:40.150Z,9.15
2023-03-12T00:05:08.421Z,9.14
2023-03-12T00:07:36.436Z,9.13
2023-03-12T00:10:05.712Z,9.13
2023-03-12T00:12:33.459Z,9.13
2023-03-12T00:15:01.763Z,9.13
2023-03-12T00:17:32.107Z,9.14
2023-03-12T00:19:59.787Z,9.13
2023-03-12T00:22:27.462Z,9.13
2023-03-12T00:24:57.669Z,9.13
2023-03-12T00:27:28.319Z,9.13
2023-03-12T00:29:55.969Z,9.13
2023-03-12T00:32:24.765Z,9.13
2023-03-12T00:34:54.871Z,9.14
2023-03-12T00:37:22.623Z,9.11
2023-03-12T00:39:51.033Z,9.11
2023-03-12T00:42:19.250Z,9.08
2023-03-12T00:44:47.138Z,9.07
2023-03-12T00:47:15.490Z,9.06
2023-03-12T00:49:43.166Z,9.05
2023-03-12T00:52:12.390Z,9.04
2023-03-12T00:54:41.348Z,9.02
2023-03-12T00:57:09.020Z,9.01
2023-03-12T00:59:40.232Z,8.94
2023-03-12T01:02:08.504Z,8.94
2023-03-12T01:04:36.440Z,8.86
2023-03-12T01:07:04.191Z,8.88
2023-03-12T01:12:21.641Z,8.87
2023-03-12T01:14:50.166Z,8.87
2023-03-12T01:17:17.830Z,8.86
2023-03-12T01:19:45.530Z,8.87
2023-03-12T01:22:13.700Z,8.86
2023-03-12T01:24:42.736Z,8.88
2023-03-12T01:27:10.379Z,8.87
2023-03-12T01:29:38.580Z,8.87
2023-03-12T01:32:07.059Z,8.85
2023-03-12T01:34:35.480Z,8.83
2023-03-12T01:37:04.014Z,8.84
2023-03-12T01:39:31.643Z,8.82
2023-03-12T01:42:00.939Z,8.82
2023-03-12T01:44:29.111Z,8.81
2023-03-12T01:46:56.772Z,8.79
2023-03-12T01:49:26.873Z,8.79
2023-03-12T01:51:59.506Z,8.78
2023-03-12T01:54:32.834Z,8.77
2023-03-12T01:57:03.913Z,8.75
2023-03-12T01:59:37.143Z,8.73
2023-03-12T02:02:07.048Z,8.69
2023-03-12T02:04:35.739Z,8.70
2023-03-12T02:07:06.202Z,8.71
2023-03-12T02:09:36.364Z,8.69
2023-03-12T02:12:06.197Z,8.70
2023-03-12T02:14:33.955Z,8.67
2023-03-12T02:17:02.294Z,8.70
2023-03-12T02:19:40.096Z,8.71
2023-03-12T02:22:09.479Z,8.65
2023-03-12T02:24:44.479Z,8.71
2023-03-12T02:27:14.592Z,8.71
2023-03-12T02:29:44.445Z,8.68
2023-03-12T02:32:19.214Z,8.61
2023-03-12T02:34:48.040Z,8.65
2023-03-12T02:37:15.776Z,8.64
2023-03-12T02:39:45.920Z,8.63
2023-03-12T02:42:15.516Z,8.66
2023-03-12T02:44:43.746Z,8.62
2023-03-12T02:47:11.858Z,8.61
2023-03-12T02:49:39.490Z,8.61
2023-03-12T02:52:07.418Z,8.59
2023-03-12T02:54:35.652Z,8.58
2023-03-12T02:57:03.303Z,8.57
2023-03-12T02:59:32.318Z,8.57
2023-03-12T03:02:02.410Z,8.57
2023-03-12T03:04:32.093Z,8.56
2023-03-12T03:06:59.936Z,8.54
2023-03-12T03:09:28.762Z,8.54
2023-03-12T03:11:56.428Z,8.54
2023-03-12T03:14:24.276Z,8.54
2023-03-12T03:16:53.851Z,8.55
2023-03-12T03:19:21.525Z,8.50
2023-03-12T03:21:49.243Z,8.54
2023-03-12T03:24:18.817Z,8.53
2023-03-12T03:26:46.481Z,8.52
2023-03-12T03:29:14.151Z,8.54
2023-03-12T03:31:42.455Z,8.55
2023-03-12T03:34:11.459Z,8.55
2023-03-12T03:36:39.090Z,8.55
2023-03-12T03:39:07.351Z,8.56
2023-03-12T03:41:35.101Z,8.59
2023-03-12T03:44:02.743Z,8.58
2023-03-12T03:46:31.009Z,8.56
2023-03-12T03:48:58.661Z,8.58
2023-03-12T03:51:27.796Z,8.61
2023-03-12T03:53:55.912Z,8.61
2023-03-12T03:56:23.587Z,8.62
2023-03-12T03:58:51.241Z,8.64
2023-03-12T04:01:19.565Z,8.65
2023-03-12T04:03:47.524Z,8.65
2023-03-12T04:06:15.164Z,8.64
2023-03-12T04:08:44.783Z,8.67
2023-03-12T04:11:14.738Z,8.69
2023-03-12T04:13:42.743Z,8.69
2023-03-12T04:16:11.331Z,8.69
2023-03-12T04:18:40.079Z,8.67
2023-03-12T04:21:09.358Z,8.69
2023-03-12T04:23:37.821Z,8.68
2023-03-12T04:26:07.844Z,8.69
2023-03-12T04:28:36.259Z,8.69
2023-03-12T04:31:08.023Z,8.70
2023-03-12T04:33:38.796Z,8.71
2023-03-12T04:36:08.702Z,8.73
2023-03-12T04:38:36.619Z,8.73
2023-03-12T04:41:06.109Z,8.74
2023-03-12T04:43:36.139Z,8.77
2023-03-12T04:46:03.836Z,8.77
2023-03-12T04:48:31.472Z,8.76
2023-03-12T04:50:59.675Z,8.77
2023-03-12T04:53:27.837Z,8.78
2023-03-12T04:55:55.592Z,8.80
2023-03-12T04:58:24.621Z,8.81
2023-03-12T05:00:53.658Z,8.83
2023-03-12T05:03:21.345Z,8.84
2023-03-12T05:05:49.567Z,8.85
2023-03-12T05:08:17.230Z,8.85
2023-03-12T05:10:45.835Z,8.86
2023-03-12T05:13:15.636Z,8.88
2023-03-12T05:15:43.464Z,8.88
2023-03-12T05:18:12.772Z,8.85
2023-03-12T05:20:41.436Z,8.92
2023-03-12T05:23:09.150Z,8.93
2023-03-12T05:25:40.019Z,8.95
2023-03-12T05:28:08.306Z,8.93
2023-03-12T05:30:36.063Z,8.94
2023-03-12T05:33:03.885Z,8.94
2023-03-12T05:35:33.370Z,8.95
2023-03-12T05:38:01.105Z,8.95
2023-03-12T05:40:28.769Z,8.93
2023-03-12T05:42:56.951Z,8.94
2023-03-12T05:45:24.602Z,8.94
2023-03-12T05:47:52.266Z,8.93
2023-03-12T05:50:20.521Z,8.96
2023-03-12T05:52:49.583Z,8.98
2023-03-12T05:55:17.693Z,8.96
2023-03-12T05:57:46.342Z,8.96
2023-03-12T06:00:15.791Z,8.99
2023-03-12T06:02:43.951Z,9.02
2023-03-12T06:05:12.585Z,9.04
2023-03-12T06:07:40.304Z,9.05
2023-03-12T06:10:11.264Z,9.08
2023-03-12T06:12:40.040Z,9.09
2023-03-12T06:15:08.564Z,9.11
2023-03-12T06:17:36.216Z,9.10
2023-03-12T06:20:04.637Z,9.15
2023-03-12T06:22:32.284Z,9.18
2023-03-12T06:24:59.997Z,9.22
2023-03-12T06:27:29.585Z,9.24
2023-03-12T06:29:57.258Z,9.24
2023-03-12T06:32:26.054Z,9.27
2023-03-12T06:34:54.361Z,9.36
2023-03-12T06:37:22.097Z,9.40
2023-03-12T06:39:49.767Z,9.45
2023-03-12T06:42:19.008Z,9.52
2023-03-12T06:44:48.164Z,9.58
2023-03-12T06:47:17.584Z,9.65
2023-03-12T06:49:45.880Z,9.71
2023-03-12T06:52:13.562Z,9.76
2023-03-12T06:54:41.268Z,9.80
2023-03-12T06:57:09.512Z,9.84
2023-03-12T06:59:37.403Z,9.90
2023-03-12T07:02:06.816Z,9.95
2023-03-12T07:04:35.043Z,9.92
2023-03-12T07:07:03.384Z,10.02
2023-03-12T07:09:31.227Z,10.09
2023-03-12T07:11:59.418Z,10.12
2023-03-12T07:14:27.096Z,10.21
2023-03-12T07:16:56.084Z,10.25
2023-03-12T07:19:25.738Z,10.30
2023-03-12T07:21:53.391Z,10.38
2023-03-12T07:24:21.045Z,10.42
2023-03-12T07:26:49.178Z,10.45
2023-03-12T07:29:16.840Z,10.47
2023-03-12T07:31:44.555Z,10.52
2023-03-12T07:34:12.878Z,10.58
2023-03-12T07:36:42.344Z,10.59
2023-03-12T07:39:10.197Z,10.63
2023-03-12T07:41:39.615Z,10.68
2023-03-12T07:44:07.443Z,10.72
2023-03-12T07:46:35.183Z,10.77
2023-03-12T07:49:03.539Z,10.82
2023-03-12T07:51:31.525Z,10.87
2023-03-12T07:54:00.581Z,10.89
2023-03-12T07:56:29.289Z,10.91
2023-03-12T07:58:57.054Z,10.98
2023-03-12T08:01:25.439Z,10.98
2023-03-12T08:03:53.620Z,11.03
2023-03-12T08:06:21.778Z,11.07
2023-03-12T08:08:49.552Z,11.11
2023-03-12T08:11:19.395Z,11.14
2023-03-12T08:13:47.139Z,11.14
2023-03-12T08:16:15.617Z,11.21
2023-03-12T08:18:44.629Z,11.25
2023-03-12T08:21:16.004Z,11.26
2023-03-12T08:23:44.324Z,11.29
2023-03-12T08:26:12.465Z,11.30
2023-03-12T08:28:41.677Z,11.37
2023-03-12T08:31:09.494Z,11.39
2023-03-12T08:33:41.654Z,11.41
2023-03-12T08:36:09.864Z,11.40
2023-03-12T08:38:37.782Z,11.48
2023-03-12T08:41:06.053Z,11.52
2023-03-12T08:43:33.692Z,11.52
2023-03-12T08:46:04.499Z,11.58
2023-03-12T08:48:33.752Z,11.61
2023-03-12T08:51:04.233Z,11.63
2023-03-12T08:53:32.988Z,11.68
2023-03-12T08:56:01.242Z,11.70
2023-03-12T08:58:29.861Z,11.77
2023-03-12T09:00:58.006Z,11.80
2023-03-12T09:03:28.292Z,11.79
2023-03-12T09:06:07.442Z,11.87
2023-03-12T09:08:35.650Z,11.94
2023-03-12T09:11:03.882Z,12.03
2023-03-12T09:13:50.715Z,12.09
2023-03-12T09:16:19.888Z,12.19
2023-03-12T09:18:49.250Z,12.28
2023-03-12T09:21:16.923Z,12.33
2023-03-12T09:23:44.612Z,12.35
2023-03-12T09:26:13.029Z,12.40
2023-03-12T09:28:40.760Z,12.54
2023-03-12T09:31:08.977Z,12.62
2023-03-12T09:33:36.893Z,12.69
2023-03-12T09:36:06.582Z,12.72
2023-03-12T09:38:35.925Z,12.83
2023-03-12T09:41:05.324Z,12.86
2023-03-12T09:43:38.410Z,12.94
2023-03-12T09:46:13.623Z,13.03
2023-03-12T09:48:42.636Z,13.11
2023-03-12T09:51:21.149Z,13.16
2023-03-12T09:53:53.573Z,13.22
2023-03-12T09:56:23.423Z,13.29
2023-03-12T09:58:55.146Z,13.32
2023-03-12T10:01:36.503Z,13.36
2023-03-12T10:04:25.717Z,13.40
2023-03-12T10:07:02.046Z,13.50
2023-03-12T10:10:03.228Z,13.53
2023-03-12T10:12:39.166Z,13.59
2023-03-12T10:15:18.871Z,13.59
2023-03-12T10:17:59.665Z,13.64
2023-03-12T10:20:48.097Z,13.61
2023-03-12T10:23:31.413Z,13.65
2023-03-12T10:26:04.570Z,13.61
2023-03-12T10:28:37.710Z,13.76
2023-03-12T10:31:08.356Z,13.82
2023-03-12T10:33:45.926Z,13.83
2023-03-12T10:36:20.652Z,13.86
2023-03-12T10:38:55.235Z,13.92
2023-03-12T10:44:36.045Z,14.04
2023-03-12T10:47:37.299Z,14.04
2023-03-12T10:50:20.141Z,14.06
2023-03-12T10:52:49.265Z,14.10
2023-03-12T10:55:26.275Z,14.13
2023-03-12T10:57:54.349Z,14.08
2023-03-12T11:00:24.410Z,14.16
2023-03-12T11:03:01.341Z,14.26
2023-03-12T11:05:31.206Z,14.26
2023-03-12T11:08:02.298Z,14.35
2023-03-12T11:10:43.488Z,14.39
2023-03-12T11:13:26.634Z,14.53
2023-03-12T11:15:55.386Z,14.54
2023-03-12T11:18:33.388Z,14.59
2023-03-12T11:21:17.522Z,14.60
2023-03-12T11:23:48.803Z,14.58
2023-03-12T11:26:21.322Z,14.61
2023-03-12T11:28:51.320Z,14.65
2023-03-12T11:31:26.845Z,14.63
2023-03-12T11:33:59.240Z,14.64
2023-03-12T11:36:45.145Z,14.70
2023-03-12T11:39:25.633Z,14.75
2023-03-12T11:42:14.091Z,14.75
2023-03-12T11:44:56.123Z,14.82
2023-03-12T11:47:36.685Z,14.82
2023-03-12T11:50:15.078Z,14.83
2023-03-12T11:52:57.279Z,14.93
2023-03-12T11:55:44.032Z,14.90
2023-03-12T11:58:31.610Z,14.96
2023-03-12T12:01:07.295Z,14.93
2023-03-12T12:03:47.363Z,14.92
2023-03-12T12:06:23.695Z,14.89
2023-03-12T12:09:03.078Z,14.92
2023-03-12T12:11:45.625Z,14.95
2023-03-12T12:14:29.101Z,14.89
2023-03-12T12:17:10.949Z,14.91
2023-03-12T12:19:52.178Z,14.94
2023-03-12T12:22:35.864Z,14.91
2023-03-12T12:25:25.376Z,14.98
2023-03-12T12:27:58.783Z,14.97
2023-03-12T12:30:37.737Z,15.06
2023-03-12T12:33:22.716Z,15.10
2023-03-12T12:35:51.326Z,15.02
2023-03-12T12:38:30.350Z,15.12
2023-03-12T12:41:03.079Z,15.10
2023-03-12T12:43:35.656Z,15.10
2023-03-12T12:46:08.164Z,15.06
2023-03-12T12:48:39.724Z,15.09
2023-03-12T12:51:09.234Z,15.08
2023-03-12T12:53:45.556Z,15.10
2023-03-12T12:56:21.343Z,15.02
2023-03-12T12:59:15.584Z,15.09
2023-03-12T13:01:45.260Z,15.12
2023-03-12T13:04:14.472Z,15.14
2023-03-12T13:07:05.122Z,15.14
2023-03-12T13:09:39.602Z,15.18
2023-03-12T13:12:17.184Z,15.12
2023-03-12T13:14:48.013Z,15.11
2023-03-12T13:17:32.836Z,15.16
2023-03-12T13:20:10.908Z,15.15
2023-03-12T13:23:03.791Z,15.12
2023-03-12T13:25:52.235Z,15.18
2023-03-12T13:28:37.752Z,15.16
2023-03-12T13:31:36.347Z,15.14
2023-03-12T13:34:53.492Z,15.15
2023-03-12T13:37:43.973Z,15.20
2023-03-12T13:40:37.132Z,15.16
2023-03-12T13:43:12.603Z,15.23
2023-03-12T13:45:59.447Z,15.19
2023-03-12T13:48:28.091Z,15.31
2023-03-12T13:50:59.643Z,15.31
2023-03-12T13:53:34.205Z,15.30
2023-03-12T13:56:05.720Z,15.44
2023-03-12T13:58:42.621Z,15.45
2023-03-12T14:01:16.817Z,15.55
2023-03-12T14:03:49.636Z,15.55
2023-03-12T14:06:21.882Z,15.49
2023-03-12T14:09:02.508Z,15.60
2023-03-12T14:11:41.193Z,15.65
2023-03-12T14:14:28.781Z,15.60
2023-03-12T14:16:59.110Z,15.64
2023-03-12T14:19:29.180Z,15.66
2023-03-12T14:22:00.984Z,15.68
2023-03-12T14:24:34.494Z,15.73
2023-03-12T14:27:04.008Z,15.69
2023-03-12T14:29:37.872Z,15.66
2023-03-12T14:32:10.170Z,15.65
2023-03-12T14:34:42.815Z,15.65
2023-03-12T14:37:17.193Z,15.66
2023-03-12T14:39:50.987Z,15.65
2023-03-12T14:42:26.462Z,15.72
2023-03-12T14:45:00.645Z,15.76
2023-03-12T14:47:29.261Z,15.77
2023-03-12T14:49:58.319Z,15.75
2023-03-12T14:52:29.880Z,15.77
2023-03-12T14:55:01.443Z,15.77
2023-03-12T14:57:29.351Z,15.79
2023-03-12T14:59:59.232Z,15.81
2023-03-12T15:02:28.113Z,15.75
2023-03-12T15:04:58.494Z,15.74
2023-03-12T15:07:30.694Z,15.77
2023-03-12T15:09:59.837Z,15.69
2023-03-12T15:12:32.884Z,15.75
2023-03-12T15:15:06.877Z,15.79
2023-03-12T15:17:35.807Z,15.72
2023-03-12T15:20:09.089Z,15.77
2023-03-12T15:22:37.669Z,15.79
2023-03-12T15:25:46.281Z,15.75
2023-03-12T15:28:29.000Z,15.74
2023-03-12T15:31:12.721Z,15.77
2023-03-12T15:33:42.290Z,15.76
2023-03-12T15:36:26.474Z,15.77
2023-03-12T15:38:56.599Z,15.79
2023-03-12T15:41:29.067Z,15.75
2023-03-12T15:43:58.341Z,15.76
2023-03-12T15:46:27.520Z,15.73
2023-03-12T15:48:57.709Z,15.72
2023-03-12T15:51:32.450Z,15.70
2023-03-12T15:54:05.833Z,15.69
2023-03-12T15:56:36.643Z,15.66
2023-03-12T15:59:20.116Z,15.67
2023-03-12T16:01:49.338Z,15.62
2023-03-12T16:04:17.454Z,15.62
2023-03-12T16:06:48.881Z,15.60
2023-03-12T16:15:01.670Z,15.54
2023-03-12T16:17:29.349Z,15.59
2023-03-12T16:19:57.003Z,15.51
2023-03-12T16:22:25.224Z,15.52
2023-03-12T16:24:52.895Z,15.52
2023-03-12T16:27:32.129Z,15.51
2023-03-12T16:30:01.285Z,15.48
2023-03-12T16:32:29.560Z,15.51
2023-03-12T16:34:57.802Z,15.48
2023-03-12T16:37:26.215Z,15.49
2023-03-12T16:39:53.862Z,15.50
2023-03-12T16:42:23.020Z,15.48
2023-03-12T16:44:50.734Z,15.46
2023-03-12T16:47:18.437Z,15.44
2023-03-12T16:49:46.205Z,15.47
2023-03-12T16:52:19.786Z,15.47
2023-03-12T16:54:49.795Z,15.44
2023-03-12T16:57:27.396Z,15.47
2023-03-12T16:59:55.585Z,15.41
2023-03-12T17:02:23.464Z,15.41
2023-03-12T17:04:53.192Z,15.42
2023-03-12T17:07:20.850Z,15.42
2023-03-12T17:09:48.598Z,15.41
2023-03-12T17:12:23.585Z,15.41
2023-03-12T17:14:52.803Z,15.40
2023-03-12T17:17:23.083Z,15.38
2023-03-12T17:19:52.501Z,15.30
2023-03-12T17:22:20.609Z,15.37
2023-03-12T17:24:48.682Z,15.36
2023-03-12T17:27:16.819Z,15.34
2023-03-12T17:29:44.433Z,15.32
2023-03-12T17:32:13.398Z,15.30
2023-03-12T17:34:41.303Z,15.27
2023-03-12T17:37:09.334Z,15.21
2023-03-12T17:39:37.212Z,15.21
2023-03-12T17:42:05.619Z,15.20
2023-03-12T17:44:34.671Z,15.18
2023-03-12T17:47:03.260Z,15.18
2023-03-12T17:49:32.428Z,15.18
2023-03-12T17:52:02.690Z,15.19
2023-03-12T17:54:30.357Z,15.17
2023-03-12T17:56:58.544Z,15.18
2023-03-12T17:59:26.317Z,15.19
2023-03-12T18:01:53.979Z,15.17
2023-03-12T18:04:21.703Z,15.20
2023-03-12T18:06:50.776Z,15.21
2023-03-12T18:09:18.672Z,15.22
2023-03-12T18:11:47.117Z,15.23
2023-03-12T18:14:14.766Z,15.23
2023-03-12T18:16:42.472Z,15.22
2023-03-12T18:19:10.612Z,15.22
2023-03-12T18:21:38.255Z,15.21
2023-03-12T18:24:13.966Z,15.22
2023-03-12T18:26:42.884Z,15.21
2023-03-12T18:29:10.612Z,15.20
2023-03-12T18:31:38.457Z,15.17
2023-03-12T18:34:06.716Z,15.15
2023-03-12T18:36:34.347Z,15.15
2023-03-12T18:39:04.474Z,15.10
2023-03-12T18:41:33.958Z,15.11
2023-03-12T18:44:01.604Z,15.09
2023-03-12T18:46:29.574Z,15.07
2023-03-12T18:48:57.689Z,15.07
2023-03-12T18:51:25.454Z,15.03
2023-03-12T18:53:53.103Z,15.03
2023-03-12T18:56:21.267Z,15.05
2023-03-12T18:58:50.314Z,15.05
2023-03-12T19:01:17.999Z,15.01
2023-03-12T19:03:46.001Z,15.06
2023-03-12T19:06:15.975Z,15.08
2023-03-12T19:08:44.094Z,15.08
2023-03-12T19:11:13.857Z,15.08
2023-03-12T19:13:42.014Z,15.03
2023-03-12T19:16:12.865Z,15.05
2023-03-12T19:18:41.115Z,15.06
2023-03-12T19:21:09.403Z,14.99
2023-03-12T19:23:37.073Z,15.09
2023-03-12T19:26:05.242Z,15.08
2023-03-12T19:28:33.299Z,15.08
2023-03-12T19:31:01.560Z,15.08
2023-03-12T19:33:30.980Z,15.08
2023-03-12T19:35:58.835Z,15.08
2023-03-12T19:38:27.254Z,15.05
2023-03-12T19:40:56.734Z,15.09
2023-03-12T19:43:24.930Z,15.02
2023-03-12T19:45:54.686Z,15.02
2023-03-12T19:48:25.350Z,15.03
2023-03-12T19:50:55.910Z,15.06
2023-03-12T19:53:24.354Z,15.01
2023-03-12T19:55:53.092Z,15.03
2023-03-12T19:58:20.737Z,15.04
2023-03-12T20:00:49.515Z,15.00
2023-03-12T20:03:17.303Z,14.99
2023-03-12T20:05:45.502Z,14.93
2023-03-12T20:08:14.548Z,14.96
2023-03-12T20:10:42.458Z,14.99
2023-03-12T20:13:12.907Z,14.92
2023-03-12T20:15:40.637Z,14.92
2023-03-12T20:18:08.486Z,14.90
2023-03-12T20:20:36.169Z,14.92
2023-03-12T20:23:03.841Z,14.94
2023-03-12T20:25:33.410Z,14.94
2023-03-12T20:28:01.221Z,14.95
2023-03-12T20:30:28.892Z,14.96
2023-03-12T20:32:56.643Z,14.85
2023-03-12T20:35:24.415Z,14.84
2023-03-12T20:37:52.141Z,14.83
2023-03-12T20:40:20.393Z,14.80
2023-03-12T20:42:49.408Z,14.84
2023-03-12T20:45:17.318Z,14.77
2023-03-12T20:47:45.593Z,14.80
2023-03-12T20:50:13.448Z,14.82
2023-03-12T20:52:41.199Z,14.75
2023-03-12T20:55:09.950Z,14.74
2023-03-12T20:57:37.647Z,14.72
2023-03-12T21:00:08.373Z,14.75
2023-03-12T21:02:36.224Z,14.69
2023-03-12T21:05:04.058Z,14.76
2023-03-12T21:07:31.723Z,14.75
2023-03-12T21:09:59.964Z,14.74
2023-03-12T21:12:28.702Z,14.74
2023-03-12T21:15:06.409Z,14.76
2023-03-12T21:17:37.794Z,14.76
2023-03-12T21:20:09.750Z,14.72
2023-03-12T21:22:38.641Z,14.65
2023-03-12T21:25:07.561Z,14.72
2023-03-12T21:27:48.015Z,14.74
2023-03-12T21:30:18.050Z,14.77
2023-03-12T21:32:47.294Z,14.77
2023-03-12T21:35:14.926Z,14.80
2023-03-12T21:37:42.575Z,14.79
2023-03-12T21:40:12.982Z,14.82
2023-03-12T21:42:41.816Z,14.80
2023-03-12T21:45:11.135Z,14.77
2023-03-12T21:47:39.047Z,14.84
2023-03-12T21:50:09.092Z,14.85
2023-03-12T21:52:42.977Z,14.84
2023-03-12T21:55:11.870Z,14.85
2023-03-12T21:57:39.714Z,14.89
2023-03-12T22:00:13.905Z,14.90
2023-03-12T22:02:42.348Z,14.92
2023-03-12T22:05:11.961Z,14.92
2023-03-12T22:07:39.450Z,14.95
2023-03-12T22:10:12.189Z,14.93
2023-03-12T22:12:40.416Z,14.92
2023-03-12T22:15:09.420Z,14.94
2023-03-12T22:17:37.258Z,14.90
2023-03-12T22:20:07.745Z,14.94
2023-03-12T22:22:37.176Z,14.89
2023-03-12T22:25:05.250Z,14.85
2023-03-12T22:27:32.951Z,14.85
2023-03-12T22:30:01.234Z,14.86
2023-03-12T22:32:29.071Z,14.87
2023-03-12T22:34:56.762Z,14.86
2023-03-12T22:37:24.507Z,14.85
2023-03-12T22:39:53.536Z,14.82
2023-03-12T22:42:21.193Z,14.83
2023-03-12T22:44:49.413Z,14.79
2023-03-12T22:47:17.094Z,14.81
2023-03-12T22:49:46.580Z,14.79
2023-03-12T22:52:14.266Z,14.81
2023-03-12T22:54:42.042Z,14.79
2023-03-12T22:57:11.093Z,14.79
2023-03-12T22:59:38.777Z,14.76
2023-03-12T23:02:06.585Z,14.68
2023-03-12T23:04:34.368Z,14.67
2023-03-12T23:07:14.824Z,14.68
2023-03-12T23:09:45.122Z,14.69
2023-03-12T23:12:14.806Z,14.69
2023-03-12T23:14:42.309Z,14.74
2023-03-12T23:17:10.340Z,14.76
2023-03-12T23:19:38.547Z,14.75
2023-03-12T23:22:07.584Z,14.76
2023-03-12T23:24:35.527Z,14.71
2023-03-12T23:27:03.518Z,14.70
2023-03-12T23:29:33.055Z,14.66
2023-03-12T23:32:00.796Z,14.67
2023-03-12T23:34:29.294Z,14.65
2023-03-12T23:36:57.115Z,14.63
2023-03-12T23:39:24.882Z,14.65
2023-03-12T23:41:53.241Z,14.63
2023-03-12T23:44:20.883Z,14.62
2023-03-12T23:46:49.961Z,14.62
2023-03-12T23:49:18.272Z,14.61
2023-03-12T23:51:46.645Z,14.63
2023-03-12T23:54:14.348Z,14.62
2023-03-12T23:56:42.622Z,14.59
2023-03-12T23:59:12.092Z,14.57
